sensor_id;sensor_type;location;lat;lon;timestamp;P1;durP1;ratioP1;P2;durP2;ratioP2
66669;SDS011;53568;52.164;4.472;2023-09-18T00:00:45;27.47;;;27.39;;
66669;SDS011;53568;52.164;4.472;2023-09-18T00:03:15;27.43;;;27.21;;
66669;SDS011;53568;52.164;4.472;2023-09-18T00:05:48;26.74;;;26.68;;
66669;SDS011;53568;52.164;4.472;2023-09-18T00:08:14;26.49;;;26.46;;
66669;SDS011;53568;52.164;4.472;2023-09-18T00:10:40;27.30;;;27.17;;
66669;SDS011;53568;52.164;4.472;2023-09-18T00:13:07;27.63;;;27.31;;
66669;SDS011;53568;52.164;4.472;2023-09-18T00:15:33;26.81;;;26.79;;
66669;SDS011;53568;52.164;4.472;2023-09-18T00:17:58;26.64;;;26.34;;
66669;SDS011;53568;52.164;4.472;2023-09-18T00:20:24;27.19;;;26.95;;
66669;SDS011;53568;52.164;4.472;2023-09-18T00:22:55;26.45;;;26.24;;
66669;SDS011;53568;52.164;4.472;2023-09-18T00:25:24;26.74;;;26.60;;
66669;SDS011;53568;52.164;4.472;2023-09-18T00:27:49;26.06;;;26.00;;
66669;SDS011;53568;52.164;4.472;2023-09-18T00:30:17;26.20;;;25.90;;
66669;SDS011;53568;52.164;4.472;2023-09-18T00:32:42;26.23;;;26.00;;
66669;SDS011;53568;52.164;4.472;2023-09-18T00:35:08;27.11;;;26.95;;
66669;SDS011;53568;52.164;4.472;2023-09-18T00:37:33;27.44;;;27.33;;
66669;SDS011;53568;52.164;4.472;2023-09-18T00:39:59;27.30;;;27.10;;
66669;SDS011;53568;52.164;4.472;2023-09-18T00:42:25;26.49;;;26.43;;
66669;SDS011;53568;52.164;4.472;2023-09-18T00:44:50;27.65;;;27.55;;
66669;SDS011;53568;52.164;4.472;2023-09-18T00:47:16;27.72;;;27.56;;
66669;SDS011;53568;52.164;4.472;2023-09-18T00:49:43;27.56;;;27.54;;
66669;SDS011;53568;52.164;4.472;2023-09-18T00:52:14;27.67;;;27.17;;
66669;SDS011;53568;52.164;4.472;2023-09-18T00:54:41;27.40;;;27.13;;
66669;SDS011;53568;52.164;4.472;2023-09-18T00:57:09;27.04;;;26.92;;
66669;SDS011;53568;52.164;4.472;2023-09-18T00:59:36;26.83;;;26.72;;
66669;SDS011;53568;52.164;4.472;2023-09-18T01:02:03;26.97;;;26.80;;
66669;SDS011;53568;52.164;4.472;2023-09-18T01:04:28;26.67;;;26.60;;
66669;SDS011;53568;52.164;4.472;2023-09-18T01:06:55;27.11;;;27.04;;
66669;SDS011;53568;52.164;4.472;2023-09-18T01:09:23;26.58;;;26.27;;
66669;SDS011;53568;52.164;4.472;2023-09-18T01:14:33;26.83;;;26.82;;
66669;SDS011;53568;52.164;4.472;2023-09-18T01:17:05;28.50;;;28.09;;
66669;SDS011;53568;52.164;4.472;2023-09-18T01:19:39;27.69;;;27.55;;
66669;SDS011;53568;52.164;4.472;2023-09-18T01:22:07;26.42;;;26.42;;
66669;SDS011;53568;52.164;4.472;2023-09-18T01:24:35;27.69;;;27.47;;
66669;SDS011;53568;52.164;4.472;2023-09-18T01:27:02;27.26;;;26.90;;
66669;SDS011;53568;52.164;4.472;2023-09-18T01:29:29;26.56;;;26.53;;
66669;SDS011;53568;52.164;4.472;2023-09-18T01:31:55;27.04;;;26.88;;
66669;SDS011;53568;52.164;4.472;2023-09-18T01:34:24;26.06;;;26.04;;
66669;SDS011;53568;52.164;4.472;2023-09-18T01:36:57;26.08;;;26.07;;
66669;SDS011;53568;52.164;4.472;2023-09-18T01:39:23;25.97;;;25.90;;
66669;SDS011;53568;52.164;4.472;2023-09-18T01:41:55;26.54;;;26.37;;
66669;SDS011;53568;52.164;4.472;2023-09-18T01:44:23;27.21;;;27.13;;
66669;SDS011;53568;52.164;4.472;2023-09-18T01:46:48;27.27;;;27.11;;
66669;SDS011;53568;52.164;4.472;2023-09-18T01:49:16;27.25;;;27.08;;
66669;SDS011;53568;52.164;4.472;2023-09-18T01:51:51;27.50;;;27.23;;
66669;SDS011;53568;52.164;4.472;2023-09-18T01:54:17;27.66;;;27.54;;
66669;SDS011;53568;52.164;4.472;2023-09-18T01:56:42;27.89;;;27.50;;
66669;SDS011;53568;52.164;4.472;2023-09-18T01:59:08;27.60;;;27.48;;
66669;SDS011;53568;52.164;4.472;2023-09-18T02:01:34;28.10;;;28.00;;
66669;SDS011;53568;52.164;4.472;2023-09-18T02:04:00;27.95;;;27.79;;
66669;SDS011;53568;52.164;4.472;2023-09-18T02:06:25;27.27;;;27.20;;
66669;SDS011;53568;52.164;4.472;2023-09-18T02:08:51;27.81;;;27.61;;
66669;SDS011;53568;52.164;4.472;2023-09-18T02:11:18;28.29;;;28.15;;
66669;SDS011;53568;52.164;4.472;2023-09-18T02:13:43;27.57;;;27.37;;
66669;SDS011;53568;52.164;4.472;2023-09-18T02:16:09;27.88;;;27.82;;
66669;SDS011;53568;52.164;4.472;2023-09-18T02:18:34;27.95;;;27.79;;
66669;SDS011;53568;52.164;4.472;2023-09-18T02:21:00;27.72;;;27.65;;
66669;SDS011;53568;52.164;4.472;2023-09-18T02:23:25;28.21;;;28.20;;
66669;SDS011;53568;52.164;4.472;2023-09-18T02:25:57;27.72;;;27.48;;
66669;SDS011;53568;52.164;4.472;2023-09-18T02:28:24;28.42;;;28.25;;
66669;SDS011;53568;52.164;4.472;2023-09-18T02:30:49;27.60;;;27.43;;
66669;SDS011;53568;52.164;4.472;2023-09-18T02:33:15;27.87;;;27.57;;
66669;SDS011;53568;52.164;4.472;2023-09-18T02:35:41;27.80;;;27.74;;
66669;SDS011;53568;52.164;4.472;2023-09-18T02:38:08;27.19;;;27.04;;
66669;SDS011;53568;52.164;4.472;2023-09-18T02:40:34;27.55;;;27.40;;
66669;SDS011;53568;52.164;4.472;2023-09-18T02:42:59;26.75;;;26.74;;
66669;SDS011;53568;52.164;4.472;2023-09-18T02:45:25;26.55;;;26.55;;
66669;SDS011;53568;52.164;4.472;2023-09-18T02:47:50;27.54;;;27.18;;
66669;SDS011;53568;52.164;4.472;2023-09-18T02:50:16;26.27;;;26.17;;
66669;SDS011;53568;52.164;4.472;2023-09-18T02:52:41;26.52;;;26.23;;
66669;SDS011;53568;52.164;4.472;2023-09-18T02:55:07;26.85;;;26.70;;
66669;SDS011;53568;52.164;4.472;2023-09-18T02:57:35;26.00;;;26.00;;
66669;SDS011;53568;52.164;4.472;2023-09-18T03:00:00;25.41;;;25.41;;
66669;SDS011;53568;52.164;4.472;2023-09-18T03:02:26;25.65;;;25.55;;
66669;SDS011;53568;52.164;4.472;2023-09-18T03:04:51;25.79;;;25.75;;
66669;SDS011;53568;52.164;4.472;2023-09-18T03:07:17;25.96;;;25.93;;
66669;SDS011;53568;52.164;4.472;2023-09-18T03:09:42;25.41;;;25.36;;
66669;SDS011;53568;52.164;4.472;2023-09-18T03:12:08;24.97;;;24.91;;
66669;SDS011;53568;52.164;4.472;2023-09-18T03:14:34;25.72;;;25.72;;
66669;SDS011;53568;52.164;4.472;2023-09-18T03:16:59;26.02;;;25.99;;
66669;SDS011;53568;52.164;4.472;2023-09-18T03:19:25;26.46;;;26.44;;
66669;SDS011;53568;52.164;4.472;2023-09-18T03:21:52;25.42;;;25.41;;
66669;SDS011;53568;52.164;4.472;2023-09-18T03:24:17;25.88;;;25.88;;
66669;SDS011;53568;52.164;4.472;2023-09-18T03:26:43;24.58;;;24.57;;
66669;SDS011;53568;52.164;4.472;2023-09-18T03:29:09;25.25;;;25.22;;
66669;SDS011;53568;52.164;4.472;2023-09-18T03:31:34;25.27;;;25.26;;
66669;SDS011;53568;52.164;4.472;2023-09-18T03:34:00;26.40;;;26.39;;
66669;SDS011;53568;52.164;4.472;2023-09-18T03:36:26;25.49;;;25.43;;
66669;SDS011;53568;52.164;4.472;2023-09-18T03:38:51;24.75;;;24.75;;
66669;SDS011;53568;52.164;4.472;2023-09-18T03:41:16;25.51;;;25.51;;
66669;SDS011;53568;52.164;4.472;2023-09-18T03:43:42;25.10;;;25.07;;
66669;SDS011;53568;52.164;4.472;2023-09-18T03:46:07;25.04;;;25.01;;
66669;SDS011;53568;52.164;4.472;2023-09-18T03:48:33;25.31;;;24.96;;
66669;SDS011;53568;52.164;4.472;2023-09-18T03:51:03;24.92;;;24.90;;
66669;SDS011;53568;52.164;4.472;2023-09-18T03:53:33;24.64;;;24.61;;
66669;SDS011;53568;52.164;4.472;2023-09-18T03:55:59;24.47;;;24.45;;
66669;SDS011;53568;52.164;4.472;2023-09-18T03:58:25;25.19;;;25.13;;
66669;SDS011;53568;52.164;4.472;2023-09-18T04:00:50;24.59;;;24.58;;
66669;SDS011;53568;52.164;4.472;2023-09-18T04:03:16;25.33;;;25.22;;
66669;SDS011;53568;52.164;4.472;2023-09-18T04:05:42;24.49;;;24.38;;
66669;SDS011;53568;52.164;4.472;2023-09-18T04:08:08;23.71;;;23.71;;
66669;SDS011;53568;52.164;4.472;2023-09-18T04:10:33;23.59;;;23.55;;
66669;SDS011;53568;52.164;4.472;2023-09-18T04:12:59;22.99;;;22.97;;
66669;SDS011;53568;52.164;4.472;2023-09-18T04:15:25;22.18;;;22.17;;
66669;SDS011;53568;52.164;4.472;2023-09-18T04:17:52;20.81;;;20.74;;
66669;SDS011;53568;52.164;4.472;2023-09-18T04:20:18;19.93;;;19.92;;
66669;SDS011;53568;52.164;4.472;2023-09-18T04:22:45;20.45;;;20.41;;
66669;SDS011;53568;52.164;4.472;2023-09-18T04:25:15;18.67;;;18.66;;
66669;SDS011;53568;52.164;4.472;2023-09-18T04:27:41;17.93;;;17.92;;
66669;SDS011;53568;52.164;4.472;2023-09-18T04:30:07;16.45;;;16.42;;
66669;SDS011;53568;52.164;4.472;2023-09-18T04:32:35;15.83;;;15.83;;
66669;SDS011;53568;52.164;4.472;2023-09-18T04:35:02;14.24;;;14.24;;
66669;SDS011;53568;52.164;4.472;2023-09-18T04:37:27;13.22;;;13.22;;
66669;SDS011;53568;52.164;4.472;2023-09-18T04:39:53;12.35;;;12.35;;
66669;SDS011;53568;52.164;4.472;2023-09-18T04:42:18;10.95;;;10.95;;
66669;SDS011;53568;52.164;4.472;2023-09-18T04:44:44;10.49;;;10.49;;
66669;SDS011;53568;52.164;4.472;2023-09-18T04:47:09;10.11;;;10.11;;
66669;SDS011;53568;52.164;4.472;2023-09-18T04:49:35;9.02;;;9.02;;
66669;SDS011;53568;52.164;4.472;2023-09-18T04:52:00;8.68;;;8.68;;
66669;SDS011;53568;52.164;4.472;2023-09-18T04:54:26;8.77;;;8.77;;
66669;SDS011;53568;52.164;4.472;2023-09-18T04:56:51;8.37;;;8.37;;
66669;SDS011;53568;52.164;4.472;2023-09-18T04:59:17;8.40;;;8.40;;
66669;SDS011;53568;52.164;4.472;2023-09-18T05:01:42;8.08;;;8.08;;
66669;SDS011;53568;52.164;4.472;2023-09-18T05:04:09;8.26;;;8.26;;
66669;SDS011;53568;52.164;4.472;2023-09-18T05:06:34;8.51;;;8.51;;
66669;SDS011;53568;52.164;4.472;2023-09-18T05:09:00;8.90;;;8.90;;
66669;SDS011;53568;52.164;4.472;2023-09-18T05:11:25;9.66;;;9.64;;
66669;SDS011;53568;52.164;4.472;2023-09-18T05:13:51;9.18;;;9.12;;
66669;SDS011;53568;52.164;4.472;2023-09-18T05:16:18;9.70;;;9.70;;
66669;SDS011;53568;52.164;4.472;2023-09-18T05:18:43;10.17;;;10.17;;
66669;SDS011;53568;52.164;4.472;2023-09-18T05:21:09;10.92;;;10.92;;
66669;SDS011;53568;52.164;4.472;2023-09-18T05:23:35;11.47;;;11.47;;
66669;SDS011;53568;52.164;4.472;2023-09-18T05:26:01;12.08;;;12.08;;
66669;SDS011;53568;52.164;4.472;2023-09-18T05:28:26;12.86;;;12.86;;
66669;SDS011;53568;52.164;4.472;2023-09-18T05:30:52;13.15;;;13.15;;
66669;SDS011;53568;52.164;4.472;2023-09-18T05:33:20;13.16;;;13.16;;
66669;SDS011;53568;52.164;4.472;2023-09-18T05:35:46;13.26;;;13.26;;
66669;SDS011;53568;52.164;4.472;2023-09-18T05:38:11;13.41;;;13.41;;
66669;SDS011;53568;52.164;4.472;2023-09-18T05:40:39;12.95;;;12.95;;
66669;SDS011;53568;52.164;4.472;2023-09-18T05:43:05;13.52;;;13.52;;
66669;SDS011;53568;52.164;4.472;2023-09-18T05:45:30;13.58;;;13.56;;
66669;SDS011;53568;52.164;4.472;2023-09-18T05:47:57;13.25;;;13.25;;
66669;SDS011;53568;52.164;4.472;2023-09-18T05:50:29;12.93;;;12.93;;
66669;SDS011;53568;52.164;4.472;2023-09-18T05:52:57;12.23;;;12.23;;
66669;SDS011;53568;52.164;4.472;2023-09-18T05:55:32;12.62;;;12.62;;
66669;SDS011;53568;52.164;4.472;2023-09-18T05:57:58;12.59;;;12.59;;
66669;SDS011;53568;52.164;4.472;2023-09-18T06:00:25;12.90;;;12.90;;
66669;SDS011;53568;52.164;4.472;2023-09-18T06:02:50;12.62;;;12.62;;
66669;SDS011;53568;52.164;4.472;2023-09-18T06:05:16;12.80;;;12.80;;
66669;SDS011;53568;52.164;4.472;2023-09-18T06:07:46;12.91;;;12.91;;
66669;SDS011;53568;52.164;4.472;2023-09-18T06:10:15;12.58;;;12.58;;
66669;SDS011;53568;52.164;4.472;2023-09-18T06:12:41;12.73;;;12.73;;
66669;SDS011;53568;52.164;4.472;2023-09-18T06:15:07;12.53;;;12.53;;
66669;SDS011;53568;52.164;4.472;2023-09-18T06:17:40;11.96;;;11.96;;
66669;SDS011;53568;52.164;4.472;2023-09-18T06:20:08;11.99;;;11.99;;
66669;SDS011;53568;52.164;4.472;2023-09-18T06:22:36;12.21;;;12.21;;
66669;SDS011;53568;52.164;4.472;2023-09-18T06:25:03;12.59;;;12.59;;
66669;SDS011;53568;52.164;4.472;2023-09-18T06:27:29;12.27;;;12.27;;
66669;SDS011;53568;52.164;4.472;2023-09-18T06:29:57;12.06;;;12.06;;
66669;SDS011;53568;52.164;4.472;2023-09-18T06:32:22;12.08;;;12.07;;
66669;SDS011;53568;52.164;4.472;2023-09-18T06:34:48;11.91;;;11.91;;
66669;SDS011;53568;52.164;4.472;2023-09-18T06:37:13;12.20;;;12.20;;
66669;SDS011;53568;52.164;4.472;2023-09-18T06:39:39;13.00;;;13.00;;
66669;SDS011;53568;52.164;4.472;2023-09-18T06:42:04;12.83;;;12.83;;
66669;SDS011;53568;52.164;4.472;2023-09-18T06:44:30;13.09;;;13.09;;
66669;SDS011;53568;52.164;4.472;2023-09-18T06:46:56;13.34;;;13.33;;
66669;SDS011;53568;52.164;4.472;2023-09-18T06:49:21;13.55;;;13.55;;
66669;SDS011;53568;52.164;4.472;2023-09-18T06:51:47;14.46;;;14.46;;
66669;SDS011;53568;52.164;4.472;2023-09-18T06:54:13;14.68;;;14.68;;
66669;SDS011;53568;52.164;4.472;2023-09-18T06:56:38;14.78;;;14.78;;
66669;SDS011;53568;52.164;4.472;2023-09-18T06:59:04;15.50;;;15.50;;
66669;SDS011;53568;52.164;4.472;2023-09-18T07:01:29;15.94;;;15.94;;
66669;SDS011;53568;52.164;4.472;2023-09-18T07:03:56;16.30;;;16.29;;
66669;SDS011;53568;52.164;4.472;2023-09-18T07:06:22;15.32;;;15.30;;
66669;SDS011;53568;52.164;4.472;2023-09-18T07:08:48;15.06;;;15.05;;
66669;SDS011;53568;52.164;4.472;2023-09-18T07:11:16;14.96;;;14.96;;
66669;SDS011;53568;52.164;4.472;2023-09-18T07:13:43;14.33;;;14.33;;
66669;SDS011;53568;52.164;4.472;2023-09-18T07:16:09;13.44;;;13.42;;
66669;SDS011;53568;52.164;4.472;2023-09-18T07:18:35;12.73;;;12.73;;
66669;SDS011;53568;52.164;4.472;2023-09-18T07:21:01;11.89;;;11.88;;
66669;SDS011;53568;52.164;4.472;2023-09-18T07:23:27;10.95;;;10.92;;
66669;SDS011;53568;52.164;4.472;2023-09-18T07:25:52;10.84;;;10.84;;
66669;SDS011;53568;52.164;4.472;2023-09-18T07:28:18;10.71;;;10.71;;
66669;SDS011;53568;52.164;4.472;2023-09-18T07:30:45;10.52;;;10.49;;
66669;SDS011;53568;52.164;4.472;2023-09-18T07:33:11;9.28;;;9.28;;
66669;SDS011;53568;52.164;4.472;2023-09-18T07:35:38;9.71;;;9.69;;
66669;SDS011;53568;52.164;4.472;2023-09-18T07:38:03;8.31;;;8.31;;
66669;SDS011;53568;52.164;4.472;2023-09-18T07:40:29;7.81;;;7.81;;
66669;SDS011;53568;52.164;4.472;2023-09-18T07:42:55;7.19;;;7.19;;
66669;SDS011;53568;52.164;4.472;2023-09-18T07:45:20;6.85;;;6.85;;
66669;SDS011;53568;52.164;4.472;2023-09-18T07:47:47;6.86;;;6.86;;
66669;SDS011;53568;52.164;4.472;2023-09-18T07:50:13;6.47;;;6.47;;
66669;SDS011;53568;52.164;4.472;2023-09-18T07:52:38;6.18;;;6.18;;
66669;SDS011;53568;52.164;4.472;2023-09-18T07:55:04;6.21;;;6.18;;
66669;SDS011;53568;52.164;4.472;2023-09-18T07:57:30;5.82;;;5.80;;
66669;SDS011;53568;52.164;4.472;2023-09-18T07:59:57;5.87;;;5.86;;
66669;SDS011;53568;52.164;4.472;2023-09-18T08:02:24;5.48;;;5.47;;
66669;SDS011;53568;52.164;4.472;2023-09-18T08:04:50;5.67;;;5.67;;
66669;SDS011;53568;52.164;4.472;2023-09-18T08:07:18;5.81;;;5.81;;
66669;SDS011;53568;52.164;4.472;2023-09-18T08:09:44;5.47;;;5.47;;
66669;SDS011;53568;52.164;4.472;2023-09-18T08:12:10;5.15;;;5.15;;
66669;SDS011;53568;52.164;4.472;2023-09-18T08:14:35;5.55;;;5.55;;
66669;SDS011;53568;52.164;4.472;2023-09-18T08:17:02;5.27;;;5.27;;
66669;SDS011;53568;52.164;4.472;2023-09-18T08:19:30;4.93;;;4.93;;
66669;SDS011;53568;52.164;4.472;2023-09-18T08:21:59;4.66;;;4.66;;
66669;SDS011;53568;52.164;4.472;2023-09-18T08:24:25;4.69;;;4.69;;
66669;SDS011;53568;52.164;4.472;2023-09-18T08:26:51;4.25;;;4.25;;
66669;SDS011;53568;52.164;4.472;2023-09-18T08:29:16;4.13;;;4.13;;
66669;SDS011;53568;52.164;4.472;2023-09-18T08:31:43;3.90;;;3.90;;
66669;SDS011;53568;52.164;4.472;2023-09-18T08:34:09;3.95;;;3.95;;
66669;SDS011;53568;52.164;4.472;2023-09-18T08:36:35;3.93;;;3.93;;
66669;SDS011;53568;52.164;4.472;2023-09-18T08:39:00;3.87;;;3.87;;
66669;SDS011;53568;52.164;4.472;2023-09-18T08:41:28;3.95;;;3.95;;
66669;SDS011;53568;52.164;4.472;2023-09-18T08:43:56;4.07;;;4.07;;
66669;SDS011;53568;52.164;4.472;2023-09-18T08:46:26;4.11;;;4.11;;
66669;SDS011;53568;52.164;4.472;2023-09-18T08:48:51;4.36;;;4.36;;
66669;SDS011;53568;52.164;4.472;2023-09-18T08:51:19;4.31;;;4.31;;
66669;SDS011;53568;52.164;4.472;2023-09-18T08:53:46;4.19;;;4.19;;
66669;SDS011;53568;52.164;4.472;2023-09-18T08:56:12;4.34;;;4.34;;
66669;SDS011;53568;52.164;4.472;2023-09-18T08:58:38;4.24;;;4.24;;
66669;SDS011;53568;52.164;4.472;2023-09-18T09:01:08;4.37;;;4.37;;
66669;SDS011;53568;52.164;4.472;2023-09-18T09:03:37;4.44;;;4.44;;
66669;SDS011;53568;52.164;4.472;2023-09-18T09:06:07;4.73;;;4.73;;
66669;SDS011;53568;52.164;4.472;2023-09-18T09:08:34;4.73;;;4.73;;
66669;SDS011;53568;52.164;4.472;2023-09-18T09:11:01;4.80;;;4.80;;
66669;SDS011;53568;52.164;4.472;2023-09-18T09:13:27;5.06;;;5.06;;
66669;SDS011;53568;52.164;4.472;2023-09-18T09:15:59;5.01;;;5.01;;
66669;SDS011;53568;52.164;4.472;2023-09-18T09:18:26;5.40;;;5.40;;
66669;SDS011;53568;52.164;4.472;2023-09-18T09:23:44;5.28;;;5.28;;
66669;SDS011;53568;52.164;4.472;2023-09-18T09:26:17;5.75;;;5.75;;
66669;SDS011;53568;52.164;4.472;2023-09-18T09:28:45;6.29;;;6.29;;
66669;SDS011;53568;52.164;4.472;2023-09-18T09:31:11;6.63;;;6.63;;
66669;SDS011;53568;52.164;4.472;2023-09-18T09:33:52;7.24;;;7.24;;
66669;SDS011;53568;52.164;4.472;2023-09-18T09:36:19;6.87;;;6.87;;
66669;SDS011;53568;52.164;4.472;2023-09-18T09:38:45;6.95;;;6.95;;
66669;SDS011;53568;52.164;4.472;2023-09-18T09:41:14;7.15;;;7.15;;
66669;SDS011;53568;52.164;4.472;2023-09-18T09:43:42;6.83;;;6.83;;
66669;SDS011;53568;52.164;4.472;2023-09-18T09:46:15;6.73;;;6.73;;
66669;SDS011;53568;52.164;4.472;2023-09-18T09:48:59;6.54;;;6.54;;
66669;SDS011;53568;52.164;4.472;2023-09-18T09:51:26;6.53;;;6.53;;
66669;SDS011;53568;52.164;4.472;2023-09-18T09:53:53;6.12;;;6.12;;
66669;SDS011;53568;52.164;4.472;2023-09-18T09:56:19;6.65;;;6.65;;
66669;SDS011;53568;52.164;4.472;2023-09-18T09:59:00;6.64;;;6.64;;
66669;SDS011;53568;52.164;4.472;2023-09-18T10:01:27;6.38;;;6.38;;
66669;SDS011;53568;52.164;4.472;2023-09-18T10:03:56;6.54;;;6.54;;
66669;SDS011;53568;52.164;4.472;2023-09-18T10:06:25;6.35;;;6.35;;
66669;SDS011;53568;52.164;4.472;2023-09-18T10:08:55;6.14;;;6.14;;
66669;SDS011;53568;52.164;4.472;2023-09-18T10:11:21;6.36;;;6.36;;
66669;SDS011;53568;52.164;4.472;2023-09-18T10:14:00;6.66;;;6.66;;
66669;SDS011;53568;52.164;4.472;2023-09-18T10:16:36;6.21;;;6.21;;
66669;SDS011;53568;52.164;4.472;2023-09-18T10:24:54;6.83;;;6.83;;
66669;SDS011;53568;52.164;4.472;2023-09-18T10:27:25;6.66;;;6.66;;
66669;SDS011;53568;52.164;4.472;2023-09-18T10:29:53;6.55;;;6.55;;
66669;SDS011;53568;52.164;4.472;2023-09-18T10:32:20;6.38;;;6.38;;
66669;SDS011;53568;52.164;4.472;2023-09-18T10:34:47;6.03;;;6.03;;
66669;SDS011;53568;52.164;4.472;2023-09-18T10:37:14;6.20;;;6.20;;
66669;SDS011;53568;52.164;4.472;2023-09-18T10:39:41;5.83;;;5.83;;
66669;SDS011;53568;52.164;4.472;2023-09-18T10:42:09;5.75;;;5.75;;
66669;SDS011;53568;52.164;4.472;2023-09-18T10:44:35;6.02;;;6.02;;
66669;SDS011;53568;52.164;4.472;2023-09-18T10:47:02;6.38;;;6.38;;
66669;SDS011;53568;52.164;4.472;2023-09-18T10:49:30;5.70;;;5.70;;
66669;SDS011;53568;52.164;4.472;2023-09-18T10:51:57;6.16;;;6.16;;
66669;SDS011;53568;52.164;4.472;2023-09-18T10:54:24;5.95;;;5.95;;
66669;SDS011;53568;52.164;4.472;2023-09-18T10:56:52;5.82;;;5.82;;
66669;SDS011;53568;52.164;4.472;2023-09-18T10:59:18;5.88;;;5.88;;
66669;SDS011;53568;52.164;4.472;2023-09-18T11:01:45;5.56;;;5.56;;
66669;SDS011;53568;52.164;4.472;2023-09-18T11:04:13;5.19;;;5.19;;
66669;SDS011;53568;52.164;4.472;2023-09-18T11:09:19;4.90;;;4.90;;
66669;SDS011;53568;52.164;4.472;2023-09-18T11:11:53;5.30;;;5.30;;
66669;SDS011;53568;52.164;4.472;2023-09-18T11:17:29;5.24;;;5.24;;
66669;SDS011;53568;52.164;4.472;2023-09-18T11:22:27;4.79;;;4.79;;
66669;SDS011;53568;52.164;4.472;2023-09-18T11:24:53;4.95;;;4.95;;
66669;SDS011;53568;52.164;4.472;2023-09-18T11:27:23;4.77;;;4.77;;
66669;SDS011;53568;52.164;4.472;2023-09-18T11:29:51;4.58;;;4.58;;
66669;SDS011;53568;52.164;4.472;2023-09-18T11:32:36;4.53;;;4.53;;
66669;SDS011;53568;52.164;4.472;2023-09-18T11:35:06;4.30;;;4.30;;
66669;SDS011;53568;52.164;4.472;2023-09-18T11:37:33;4.11;;;4.11;;
66669;SDS011;53568;52.164;4.472;2023-09-18T11:40:00;4.23;;;4.23;;
66669;SDS011;53568;52.164;4.472;2023-09-18T11:42:25;3.95;;;3.95;;
66669;SDS011;53568;52.164;4.472;2023-09-18T11:44:52;3.90;;;3.90;;
66669;SDS011;53568;52.164;4.472;2023-09-18T11:47:18;4.12;;;4.12;;
66669;SDS011;53568;52.164;4.472;2023-09-18T11:52:26;3.64;;;3.64;;
66669;SDS011;53568;52.164;4.472;2023-09-18T11:54:56;3.98;;;3.98;;
66669;SDS011;53568;52.164;4.472;2023-09-18T11:57:23;3.72;;;3.72;;
66669;SDS011;53568;52.164;4.472;2023-09-18T11:59:50;3.80;;;3.80;;
66669;SDS011;53568;52.164;4.472;2023-09-18T12:02:29;3.92;;;3.92;;
66669;SDS011;53568;52.164;4.472;2023-09-18T12:07:55;3.91;;;3.91;;
66669;SDS011;53568;52.164;4.472;2023-09-18T12:10:22;3.74;;;3.74;;
66669;SDS011;53568;52.164;4.472;2023-09-18T12:12:48;3.78;;;3.78;;
66669;SDS011;53568;52.164;4.472;2023-09-18T12:15:18;4.02;;;4.02;;
66669;SDS011;53568;52.164;4.472;2023-09-18T12:17:45;4.45;;;4.45;;
66669;SDS011;53568;52.164;4.472;2023-09-18T12:20:14;4.31;;;4.31;;
66669;SDS011;53568;52.164;4.472;2023-09-18T12:22:49;4.78;;;4.78;;
66669;SDS011;53568;52.164;4.472;2023-09-18T12:25:15;4.26;;;4.26;;
66669;SDS011;53568;52.164;4.472;2023-09-18T12:27:51;3.91;;;3.91;;
66669;SDS011;53568;52.164;4.472;2023-09-18T12:30:21;4.24;;;4.24;;
66669;SDS011;53568;52.164;4.472;2023-09-18T12:32:48;4.08;;;4.08;;
66669;SDS011;53568;52.164;4.472;2023-09-18T12:35:15;4.01;;;4.01;;
66669;SDS011;53568;52.164;4.472;2023-09-18T12:37:43;3.96;;;3.96;;
66669;SDS011;53568;52.164;4.472;2023-09-18T12:40:26;4.26;;;4.26;;
66669;SDS011;53568;52.164;4.472;2023-09-18T12:42:56;4.44;;;4.44;;
66669;SDS011;53568;52.164;4.472;2023-09-18T12:45:26;4.51;;;4.51;;
66669;SDS011;53568;52.164;4.472;2023-09-18T12:47:54;4.80;;;4.80;;
66669;SDS011;53568;52.164;4.472;2023-09-18T12:50:21;5.26;;;5.26;;
66669;SDS011;53568;52.164;4.472;2023-09-18T12:52:47;5.43;;;5.43;;
66669;SDS011;53568;52.164;4.472;2023-09-18T12:55:23;5.67;;;5.67;;
66669;SDS011;53568;52.164;4.472;2023-09-18T12:57:49;5.58;;;5.58;;
66669;SDS011;53568;52.164;4.472;2023-09-18T13:00:17;5.40;;;5.40;;
66669;SDS011;53568;52.164;4.472;2023-09-18T13:02:46;5.06;;;5.06;;
66669;SDS011;53568;52.164;4.472;2023-09-18T13:05:12;5.13;;;5.13;;
66669;SDS011;53568;52.164;4.472;2023-09-18T13:07:44;4.82;;;4.82;;
66669;SDS011;53568;52.164;4.472;2023-09-18T13:10:10;4.89;;;4.89;;
66669;SDS011;53568;52.164;4.472;2023-09-18T13:12:42;5.26;;;5.26;;
66669;SDS011;53568;52.164;4.472;2023-09-18T13:15:11;5.07;;;5.07;;
66669;SDS011;53568;52.164;4.472;2023-09-18T13:17:40;5.19;;;5.19;;
66669;SDS011;53568;52.164;4.472;2023-09-18T13:20:14;4.98;;;4.98;;
66669;SDS011;53568;52.164;4.472;2023-09-18T13:22:47;4.86;;;4.86;;
66669;SDS011;53568;52.164;4.472;2023-09-18T13:25:18;5.10;;;5.10;;
66669;SDS011;53568;52.164;4.472;2023-09-18T13:27:46;4.85;;;4.85;;
66669;SDS011;53568;52.164;4.472;2023-09-18T13:30:11;4.79;;;4.79;;
66669;SDS011;53568;52.164;4.472;2023-09-18T13:32:42;4.87;;;4.87;;
66669;SDS011;53568;52.164;4.472;2023-09-18T13:35:08;5.10;;;5.10;;
66669;SDS011;53568;52.164;4.472;2023-09-18T13:37:36;5.13;;;5.13;;
66669;SDS011;53568;52.164;4.472;2023-09-18T13:40:04;5.10;;;5.10;;
66669;SDS011;53568;52.164;4.472;2023-09-18T13:42:39;4.95;;;4.95;;
66669;SDS011;53568;52.164;4.472;2023-09-18T13:45:06;5.00;;;5.00;;
66669;SDS011;53568;52.164;4.472;2023-09-18T13:47:32;4.79;;;4.79;;
66669;SDS011;53568;52.164;4.472;2023-09-18T13:49:59;4.92;;;4.92;;
66669;SDS011;53568;52.164;4.472;2023-09-18T13:52:30;4.90;;;4.90;;
66669;SDS011;53568;52.164;4.472;2023-09-18T13:54:57;4.83;;;4.83;;
66669;SDS011;53568;52.164;4.472;2023-09-18T13:57:23;5.07;;;5.07;;
66669;SDS011;53568;52.164;4.472;2023-09-18T13:59:49;4.89;;;4.89;;
66669;SDS011;53568;52.164;4.472;2023-09-18T14:02:16;5.02;;;5.02;;
66669;SDS011;53568;52.164;4.472;2023-09-18T14:04:43;4.66;;;4.66;;
66669;SDS011;53568;52.164;4.472;2023-09-18T14:07:10;4.62;;;4.62;;
66669;SDS011;53568;52.164;4.472;2023-09-18T14:09:37;4.51;;;4.51;;
66669;SDS011;53568;52.164;4.472;2023-09-18T14:12:03;4.65;;;4.65;;
66669;SDS011;53568;52.164;4.472;2023-09-18T14:14:32;4.39;;;4.39;;
66669;SDS011;53568;52.164;4.472;2023-09-18T14:16:58;4.39;;;4.39;;
66669;SDS011;53568;52.164;4.472;2023-09-18T14:19:23;4.48;;;4.48;;
66669;SDS011;53568;52.164;4.472;2023-09-18T14:21:49;5.01;;;5.01;;
66669;SDS011;53568;52.164;4.472;2023-09-18T14:24:15;5.51;;;5.51;;
66669;SDS011;53568;52.164;4.472;2023-09-18T14:26:43;5.75;;;5.75;;
66669;SDS011;53568;52.164;4.472;2023-09-18T14:29:10;5.36;;;5.36;;
66669;SDS011;53568;52.164;4.472;2023-09-18T14:31:36;5.04;;;5.04;;
66669;SDS011;53568;52.164;4.472;2023-09-18T14:34:02;4.50;;;4.50;;
66669;SDS011;53568;52.164;4.472;2023-09-18T14:36:33;3.62;;;3.62;;
66669;SDS011;53568;52.164;4.472;2023-09-18T14:39:00;3.16;;;3.16;;
66669;SDS011;53568;52.164;4.472;2023-09-18T14:41:26;3.43;;;3.43;;
66669;SDS011;53568;52.164;4.472;2023-09-18T14:43:52;2.86;;;2.86;;
66669;SDS011;53568;52.164;4.472;2023-09-18T14:46:18;2.99;;;2.99;;
66669;SDS011;53568;52.164;4.472;2023-09-18T14:48:44;2.71;;;2.71;;
66669;SDS011;53568;52.164;4.472;2023-09-18T14:51:10;2.72;;;2.71;;
66669;SDS011;53568;52.164;4.472;2023-09-18T14:53:36;2.46;;;2.46;;
66669;SDS011;53568;52.164;4.472;2023-09-18T14:56:02;2.52;;;2.52;;
66669;SDS011;53568;52.164;4.472;2023-09-18T14:58:29;2.84;;;2.84;;
66669;SDS011;53568;52.164;4.472;2023-09-18T15:00:56;2.47;;;2.47;;